createdAt,value
2022-11-14T00:01:17.984Z,99594.19
2022-11-14T00:03:45.193Z,99593.38
2022-11-14T00:06:12.062Z,99588.41
2022-11-14T00:08:38.680Z,99591.13
2022-11-14T00:11:06.338Z,99589.22
2022-11-14T00:13:32.979Z,99584.81
2022-11-14T00:15:59.633Z,99573.03
2022-11-14T00:18:26.436Z,99573.84
2022-11-14T00:20:54.770Z,99562.28
2022-11-14T00:23:21.975Z,99554.34
2022-11-14T00:25:50.078Z,99555.44
2022-11-14T00:28:19.557Z,99551.84
2022-11-14T00:30:53.007Z,99558.16
2022-11-14T00:33:21.307Z,99554.34
2022-11-14T00:35:55.524Z,99549.34
2022-11-14T00:38:22.215Z,99552.09
2022-11-14T00:40:49.120Z,99545.56
2022-11-14T00:43:15.882Z,99541.72
2022-11-14T00:45:46.343Z,99536.22
2022-11-14T00:48:13.951Z,99536.22
2022-11-14T00:50:41.104Z,99529.09
2022-11-14T00:53:07.822Z,99532.63
2022-11-14T00:55:34.962Z,99531.53
2022-11-14T00:58:01.625Z,99525.16
2022-11-14T01:00:28.409Z,99529.56
2022-11-14T01:02:58.443Z,99529.56
2022-11-14T01:05:26.052Z,99542.72
2022-11-14T01:07:53.058Z,99541.66
2022-11-14T01:10:19.973Z,99537.78
2022-11-14T01:12:46.635Z,99530.66
2022-11-14T01:15:13.614Z,99521.84
2022-11-14T01:17:40.335Z,99522.09
2022-11-14T01:20:08.184Z,99518.78
2022-11-14T01:22:34.861Z,99508.63
2022-11-14T01:25:01.581Z,99502.59
2022-11-14T01:27:31.667Z,99509.69
2022-11-14T01:29:58.258Z,99503.94
2022-11-14T01:32:26.372Z,99505.25
2022-11-14T01:34:53.032Z,99504.66
2022-11-14T01:37:19.646Z,99486.56
2022-11-14T01:39:46.783Z,99485.25
2022-11-14T01:42:13.385Z,99481.66
2022-11-14T01:44:54.581Z,99480.00
2022-11-14T01:47:26.570Z,99474.50
2022-11-14T01:49:59.417Z,99472.84
2022-11-14T01:52:36.014Z,99472.03
2022-11-14T01:55:07.772Z,99470.13
2022-11-14T01:57:38.563Z,99465.19
2022-11-14T02:00:08.894Z,99461.34
2022-11-14T02:02:37.223Z,99467.91
2022-11-14T02:05:12.940Z,99465.19
2022-11-14T02:07:40.743Z,99467.91
2022-11-14T02:10:15.029Z,99462.44
2022-11-14T02:12:42.037Z,99466.25
2022-11-14T02:15:09.844Z,99479.72
2022-11-14T02:17:36.714Z,99463.00
2022-11-14T02:20:05.517Z,99470.38
2022-11-14T02:22:33.337Z,99461.34
2022-11-14T02:25:00.107Z,99461.06
2022-11-14T02:27:27.031Z,99463.00
2022-11-14T02:29:53.693Z,99464.41
2022-11-14T02:32:20.533Z,99454.56
2022-11-14T02:34:47.289Z,99453.50
2022-11-14T02:37:13.923Z,99449.81
2022-11-14T02:39:40.908Z,99452.56
2022-11-14T02:42:07.675Z,99452.00
2022-11-14T02:44:34.313Z,99445.97
2022-11-14T02:47:00.992Z,99438.81
2022-11-14T02:49:27.774Z,99435.00
2022-11-14T02:51:54.417Z,99427.03
2022-11-14T02:54:21.230Z,99422.38
2022-11-14T02:56:47.825Z,99428.44
2022-11-14T02:59:14.461Z,99425.69
2022-11-14T03:01:41.170Z,99410.88
2022-11-14T03:04:08.092Z,99411.16
2022-11-14T03:06:34.750Z,99402.94
2022-11-14T03:09:01.390Z,99395.78
2022-11-14T03:11:28.094Z,99387.31
2022-11-14T03:13:54.812Z,99390.03
2022-11-14T03:16:21.686Z,99391.38
2022-11-14T03:18:49.667Z,99386.72
2022-11-14T03:21:21.794Z,99389.78
2022-11-14T03:23:48.659Z,99398.81
2022-11-14T03:26:18.494Z,99395.84
2022-11-14T03:28:45.471Z,99400.00
2022-11-14T03:31:13.516Z,99403.88
2022-11-14T03:33:41.593Z,99402.78
2022-11-14T03:36:08.722Z,99401.16
2022-11-14T03:38:35.425Z,99398.16
2022-11-14T03:41:02.257Z,99398.16
2022-11-14T03:43:33.886Z,99398.41
2022-11-14T03:46:01.955Z,99395.66
2022-11-14T03:48:30.243Z,99400.06
2022-11-14T03:50:57.510Z,99392.66
2022-11-14T03:53:24.983Z,99395.19
2022-11-14T03:55:52.248Z,99380.13
2022-11-14T03:58:19.025Z,99380.38
2022-11-14T04:00:46.234Z,99377.91
2022-11-14T04:03:13.526Z,99379.00
2022-11-14T04:05:40.676Z,99373.75
2022-11-14T04:08:07.823Z,99369.41
2022-11-14T04:10:34.606Z,99378.16
2022-11-14T04:13:01.237Z,99378.72
2022-11-14T04:15:27.863Z,99371.31
2022-11-14T04:17:54.492Z,99373.25
2022-11-14T04:20:22.000Z,99367.75
2022-11-14T04:22:48.971Z,99368.84
2022-11-14T04:25:15.909Z,99359.25
2022-11-14T04:27:43.566Z,99361.19
2022-11-14T04:30:11.097Z,99357.88
2022-11-14T04:32:37.851Z,99360.94
2022-11-14T04:35:04.814Z,99355.69
2022-11-14T04:37:31.426Z,99356.78
2022-11-14T04:40:00.977Z,99346.63
2022-11-14T04:42:27.689Z,99351.84
2022-11-14T04:44:54.396Z,99352.72
2022-11-14T04:47:21.058Z,99359.53
2022-11-14T04:49:49.219Z,99352.41
2022-11-14T04:52:16.106Z,99356.22
2022-11-14T04:54:42.706Z,99350.72
2022-11-14T04:57:09.322Z,99355.38
2022-11-14T04:59:35.938Z,99352.41
2022-11-14T05:02:02.840Z,99332.63
2022-11-14T05:04:29.511Z,99331.53
2022-11-14T05:06:56.151Z,99337.88
2022-11-14T05:09:22.794Z,99334.25
2022-11-14T05:11:49.613Z,99333.19
2022-11-14T05:14:16.289Z,99328.22
2022-11-14T05:16:43.215Z,99322.41
2022-11-14T05:19:10.225Z,99330.91
2022-11-14T05:21:36.814Z,99324.84
2022-11-14T05:24:04.810Z,99319.94
2022-11-14T05:26:31.476Z,99322.94
2022-11-14T05:28:58.080Z,99310.06
2022-11-14T05:31:24.665Z,99305.97
2022-11-14T05:33:52.723Z,99302.41
2022-11-14T05:36:20.353Z,99316.09
2022-11-14T05:38:46.987Z,99310.63
2022-11-14T05:41:16.860Z,99291.16
2022-11-14T05:43:43.885Z,99291.16
2022-11-14T05:46:12.853Z,99296.41
2022-11-14T05:48:39.811Z,99289.81
2022-11-14T05:51:10.732Z,99285.44
2022-11-14T05:53:39.222Z,99288.41
2022-11-14T05:56:09.642Z,99281.00
2022-11-14T05:58:36.551Z,99272.22
2022-11-14T06:01:05.838Z,99279.38
2022-11-14T06:03:39.408Z,99278.03
2022-11-14T06:06:09.066Z,99276.91
2022-11-14T06:08:36.453Z,99267.06
2022-11-14T06:11:08.744Z,99271.13
2022-11-14T06:13:36.210Z,99280.19
2022-11-14T06:16:09.310Z,99283.19
2022-11-14T06:18:37.589Z,99291.97
2022-11-14T06:21:16.326Z,99291.47
2022-11-14T06:23:43.401Z,99302.13
2022-11-14T06:26:36.132Z,99306.25
2022-11-14T06:29:02.826Z,99305.94
2022-11-14T06:31:29.460Z,99301.50
2022-11-14T06:33:57.248Z,99294.09
2022-11-14T06:36:24.537Z,99305.06
2022-11-14T06:38:51.390Z,99316.25
2022-11-14T06:41:20.853Z,99324.78
2022-11-14T06:43:52.961Z,99317.94
2022-11-14T06:46:21.230Z,99316.53
2022-11-14T06:48:48.933Z,99313.50
2022-11-14T06:51:17.275Z,99297.31
2022-11-14T06:53:44.509Z,99301.38
2022-11-14T06:56:20.291Z,99298.94
2022-11-14T06:58:49.406Z,99298.72
2022-11-14T07:01:20.225Z,99298.44
2022-11-14T07:03:47.728Z,99299.25
2022-11-14T07:06:19.265Z,99291.00
2022-11-14T07:08:46.090Z,99295.88
2022-11-14T07:11:23.992Z,99299.16
2022-11-14T07:13:59.044Z,99286.78
2022-11-14T07:16:31.903Z,99296.94
2022-11-14T07:18:59.689Z,99281.31
2022-11-14T07:21:27.894Z,99284.31
2022-11-14T07:23:54.773Z,99287.06
2022-11-14T07:26:21.752Z,99285.72
2022-11-14T07:28:52.425Z,99291.75
2022-11-14T07:31:20.753Z,99286.00
2022-11-14T07:33:47.853Z,99285.69
2022-11-14T07:36:15.669Z,99286.00
2022-11-14T07:38:42.421Z,99290.38
2022-11-14T07:41:14.280Z,99298.66
2022-11-14T07:43:41.487Z,99293.47
2022-11-14T07:46:18.068Z,99292.63
2022-11-14T07:48:45.886Z,99290.69
2022-11-14T07:51:19.990Z,99277.56
2022-11-14T07:53:46.816Z,99275.06
2022-11-14T07:56:13.844Z,99284.16
2022-11-14T07:58:41.677Z,99278.66
2022-11-14T08:01:11.205Z,99273.19
2022-11-14T08:03:42.318Z,99283.09
2022-11-14T08:06:14.785Z,99271.28
2022-11-14T08:08:41.455Z,99269.38
2022-11-14T08:11:08.209Z,99264.97
2022-11-14T08:13:34.879Z,99260.56
2022-11-14T08:16:14.092Z,99254.28
2022-11-14T08:18:42.301Z,99252.91
2022-11-14T08:21:09.233Z,99247.41
2022-11-14T08:23:36.605Z,99250.16
2022-11-14T08:26:03.438Z,99252.31
2022-11-14T08:28:30.398Z,99261.66
2022-11-14T08:31:02.545Z,99256.72
2022-11-14T08:33:30.850Z,99240.88
2022-11-14T08:36:04.617Z,99239.53
2022-11-14T08:38:32.647Z,99241.19
2022-11-14T08:41:00.817Z,99239.28
2022-11-14T08:43:30.959Z,99239.03
2022-11-14T08:46:23.382Z,99238.78
2022-11-14T08:48:50.077Z,99236.28
2022-11-14T08:51:16.815Z,99239.03
2022-11-14T08:53:43.452Z,99240.97
2022-11-14T08:56:11.196Z,99234.38
2022-11-14T08:58:38.027Z,99233.31
2022-11-14T09:01:07.390Z,99227.84
2022-11-14T09:03:41.087Z,99235.00
2022-11-14T09:06:15.744Z,99225.97
2022-11-14T09:08:43.083Z,99230.91
2022-11-14T09:11:10.196Z,99235.59
2022-11-14T09:16:53.663Z,99217.22
2022-11-14T09:19:21.094Z,99221.63
2022-11-14T09:21:47.866Z,99221.94
2022-11-14T09:24:14.626Z,99209.88
2022-11-14T09:26:41.246Z,99204.69
2022-11-14T09:29:09.412Z,99199.47
2022-11-14T09:31:36.046Z,99202.50
2022-11-14T09:34:02.720Z,99195.63
2022-11-14T09:36:29.298Z,99190.16
2022-11-14T09:38:55.941Z,99191.25
2022-11-14T09:41:24.647Z,99200.06
2022-11-14T09:43:57.419Z,99200.59
2022-11-14T09:46:28.237Z,99199.50
2022-11-14T09:48:54.847Z,99198.44
2022-11-14T09:51:39.858Z,99203.09
2022-11-14T09:54:21.642Z,99188.81
2022-11-14T09:56:48.568Z,99198.72
2022-11-14T09:59:15.517Z,99198.16
2022-11-14T10:02:05.130Z,99194.34
2022-11-14T10:04:40.937Z,99197.91
2022-11-14T10:07:18.546Z,99187.47
2022-11-14T10:10:01.040Z,99175.66
2022-11-14T10:12:43.640Z,99182.53
2022-11-14T10:15:34.005Z,99179.25
2022-11-14T10:18:10.274Z,99178.13
2022-11-14T10:21:19.594Z,99191.88
2022-11-14T10:23:56.144Z,99190.22
2022-11-14T10:26:27.275Z,99195.72
2022-11-14T10:29:39.093Z,99189.13
2022-11-14T10:32:37.851Z,99184.47
2022-11-14T10:35:11.042Z,99189.94
2022-11-14T10:37:43.610Z,99189.66
2022-11-14T10:40:22.557Z,99190.78
2022-11-14T10:42:55.357Z,99185.81
2022-11-14T10:45:27.454Z,99189.38
2022-11-14T10:48:03.473Z,99178.16
2022-11-14T10:50:43.351Z,99172.38
2022-11-14T10:53:33.292Z,99174.84
2022-11-14T10:56:04.699Z,99173.72
2022-11-14T10:58:42.215Z,99175.13
2022-11-14T11:01:32.431Z,99170.44
2022-11-14T11:04:14.015Z,99177.56
2022-11-14T11:06:40.853Z,99172.66
2022-11-14T11:09:33.632Z,99166.88
2022-11-14T11:12:03.335Z,99171.00
2022-11-14T11:14:31.438Z,99163.31
2022-11-14T11:17:27.968Z,99161.66
2022-11-14T11:20:23.896Z,99157.25
2022-11-14T11:23:04.071Z,99156.97
2022-11-14T11:26:09.188Z,99148.72
2022-11-14T11:28:37.390Z,99151.47
2022-11-14T11:31:08.967Z,99143.50
2022-11-14T11:33:39.383Z,99142.97
2022-11-14T11:36:18.457Z,99138.56
2022-11-14T11:38:46.153Z,99142.97
2022-11-14T11:44:18.810Z,99134.13
2022-11-14T11:46:54.941Z,99126.47
2022-11-14T11:52:59.946Z,99113.22
2022-11-14T11:56:23.961Z,99109.94
2022-11-14T11:58:57.570Z,99102.25
2022-11-14T12:01:41.984Z,99099.50
2022-11-14T12:05:13.773Z,99099.75
2022-11-14T12:08:21.212Z,99097.28
2022-11-14T12:11:10.063Z,99093.13
2022-11-14T12:13:52.861Z,99087.03
2022-11-14T12:16:44.320Z,99078.75
2022-11-14T12:19:14.034Z,99082.34
2022-11-14T12:22:11.970Z,99077.94
2022-11-14T12:25:16.170Z,99073.53
2022-11-14T12:28:01.578Z,99072.94
2022-11-14T12:30:29.328Z,99065.25
2022-11-14T12:33:03.986Z,99071.00
2022-11-14T12:35:36.867Z,99063.00
2022-11-14T12:41:35.359Z,99057.72
2022-11-14T12:44:32.334Z,99053.63
2022-11-14T12:47:05.536Z,99052.78
2022-11-14T12:49:47.245Z,99059.94
2022-11-14T12:52:44.756Z,99034.88
2022-11-14T12:55:26.479Z,99045.06
2022-11-14T12:58:19.159Z,99051.16
2022-11-14T13:00:45.723Z,99047.03
2022-11-14T13:03:18.798Z,99045.66
2022-11-14T13:05:51.782Z,99035.47
2022-11-14T13:08:37.578Z,99024.19
2022-11-14T13:12:02.417Z,99041.50
2022-11-14T13:14:49.637Z,99030.19
2022-11-14T13:17:34.806Z,99032.69
2022-11-14T13:20:41.593Z,99018.97
2022-11-14T13:23:26.762Z,99005.22
2022-11-14T13:26:11.820Z,99017.28
2022-11-14T13:28:38.528Z,98999.69
2022-11-14T13:31:17.639Z,99001.59
2022-11-14T13:33:53.250Z,98995.78
2022-11-14T13:36:47.017Z,98994.59
2022-11-14T13:39:30.534Z,98980.78
2022-11-14T13:42:12.461Z,98979.38
2022-11-14T13:45:03.872Z,98975.84
2022-11-14T13:47:42.652Z,98973.59
2022-11-14T13:50:16.114Z,98954.63
2022-11-14T13:52:48.029Z,98959.59
2022-11-14T13:55:27.897Z,98937.81
2022-11-14T13:58:38.533Z,98929.56
2022-11-14T14:01:31.961Z,98927.38
2022-11-14T14:04:17.866Z,98920.69
2022-11-14T14:07:26.195Z,98912.97
2022-11-14T14:10:12.492Z,98915.69
2022-11-14T14:13:06.824Z,98906.16
2022-11-14T14:15:41.287Z,98904.81
2022-11-14T14:18:31.651Z,98919.44
2022-11-14T14:21:13.979Z,98917.84
2022-11-14T14:23:44.511Z,98920.28
2022-11-14T14:26:26.839Z,98931.34
2022-11-14T14:29:22.706Z,98933.03
2022-11-14T14:31:50.878Z,98924.56
2022-11-14T14:34:34.379Z,98929.19
2022-11-14T14:37:01.102Z,98927.00
2022-11-14T14:39:29.069Z,98924.25
2022-11-14T14:41:58.204Z,98926.50
2022-11-14T14:44:38.429Z,98920.69
2022-11-14T14:47:41.449Z,98925.38
2022-11-14T14:50:21.062Z,98923.44
2022-11-14T14:52:55.484Z,98915.78
2022-11-14T14:55:28.562Z,98909.47
2022-11-14T14:57:55.569Z,98904.50
2022-11-14T15:00:26.327Z,98905.00
2022-11-14T15:02:56.341Z,98903.78
2022-11-14T15:05:29.278Z,98894.66
2022-11-14T15:07:58.795Z,98885.84
2022-11-14T15:10:30.906Z,98888.06
2022-11-14T15:12:58.647Z,98882.63
2022-11-14T15:15:27.875Z,98877.97
2022-11-14T15:17:58.769Z,98877.19
2022-11-14T15:20:29.991Z,98874.47
2022-11-14T15:23:21.763Z,98868.72
2022-11-14T15:25:49.686Z,98875.06
2022-11-14T15:28:22.618Z,98874.22
2022-11-14T15:31:02.094Z,98862.72
2022-11-14T15:33:31.880Z,98867.16
2022-11-14T15:36:10.293Z,98863.88
2022-11-14T15:38:45.639Z,98861.13
2022-11-14T15:41:23.881Z,98856.19
2022-11-14T15:43:55.298Z,98853.72
2022-11-14T15:46:34.455Z,98850.44
2022-11-14T15:49:20.110Z,98854.88
2022-11-14T15:51:57.025Z,98849.13
2022-11-14T15:54:35.016Z,98849.38
2022-11-14T15:57:18.071Z,98856.28
2022-11-14T15:59:45.922Z,98856.28
2022-11-14T16:02:22.838Z,98865.41
2022-11-14T16:04:52.138Z,98864.56
2022-11-14T16:07:19.960Z,98861.53
2022-11-14T16:09:47.125Z,98853.03
2022-11-14T16:12:14.855Z,98858.00
2022-11-14T16:14:41.678Z,98854.69
2022-11-14T16:17:14.544Z,98860.19
2022-11-14T16:19:42.880Z,98858.00
2022-11-14T16:22:17.108Z,98852.50
2022-11-14T16:24:44.010Z,98854.97
2022-11-14T16:27:10.839Z,98851.38
2022-11-14T16:29:38.770Z,98851.13
2022-11-14T16:32:05.478Z,98849.81
2022-11-14T16:34:32.254Z,98856.94
2022-11-14T16:37:01.736Z,98842.94
2022-11-14T16:39:29.135Z,98844.88
2022-11-14T16:42:03.946Z,98844.88
2022-11-14T16:44:35.840Z,98852.81
2022-11-14T16:47:07.029Z,98845.97
2022-11-14T16:49:33.933Z,98843.22
2022-11-14T16:52:07.751Z,98838.25
2022-11-14T16:54:34.501Z,98846.25
2022-11-14T16:57:01.464Z,98845.44
2022-11-14T16:59:28.204Z,98836.09
2022-11-14T17:01:57.513Z,98832.53
2022-11-14T17:04:24.277Z,98836.41
2022-11-14T17:06:51.040Z,98828.16
2022-11-14T17:09:17.795Z,98830.09
2022-11-14T17:11:45.817Z,98821.28
2022-11-14T17:14:13.362Z,98815.22
2022-11-14T17:16:40.094Z,98820.72
2022-11-14T17:19:06.855Z,98819.09
2022-11-14T17:21:33.846Z,98825.72
2022-11-14T17:24:01.699Z,98823.78
2022-11-14T17:26:29.173Z,98821.59
2022-11-14T17:28:55.968Z,98819.09
2022-11-14T17:31:23.227Z,98818.56
2022-11-14T17:33:54.843Z,98823.22
2022-11-14T17:36:23.943Z,98823.53
2022-11-14T17:38:50.792Z,98821.28
2022-11-14T17:41:17.528Z,98806.47
2022-11-14T17:43:44.975Z,98815.78
2022-11-14T17:46:15.979Z,98823.47
2022-11-14T17:48:44.215Z,98808.09
2022-11-14T17:51:13.794Z,98815.22
2022-11-14T17:53:41.074Z,98809.72
2022-11-14T17:56:16.008Z,98809.22
2022-11-14T17:58:43.964Z,98810.28
2022-11-14T18:01:14.975Z,98809.22
2022-11-14T18:03:42.804Z,98806.47
2022-11-14T18:06:21.818Z,98806.47
2022-11-14T18:08:50.051Z,98806.47
2022-11-14T18:11:17.731Z,98795.69
2022-11-14T18:13:44.511Z,98798.16
2022-11-14T18:16:17.611Z,98794.31
2022-11-14T18:18:44.836Z,98787.44
2022-11-14T18:21:11.687Z,98785.72
2022-11-14T18:23:38.818Z,98792.06
2022-11-14T18:26:13.085Z,98790.19
2022-11-14T18:28:44.087Z,98782.19
2022-11-14T18:31:11.841Z,98785.84
2022-11-14T18:33:39.926Z,98786.97
2022-11-14T18:36:10.534Z,98789.47
2022-11-14T18:38:37.586Z,98793.59
2022-11-14T18:41:08.551Z,98799.41
2022-11-14T18:43:35.920Z,98793.94
2022-11-14T18:46:12.828Z,98799.47
2022-11-14T18:48:41.361Z,98804.41
2022-11-14T18:51:12.126Z,98794.03
2022-11-14T18:53:38.966Z,98800.03
2022-11-14T18:56:13.504Z,98800.03
2022-11-14T18:58:41.580Z,98803.59
2022-11-14T19:01:24.942Z,98795.09
2022-11-14T19:03:53.100Z,98800.63
2022-11-14T19:06:19.887Z,98793.53
2022-11-14T19:08:46.870Z,98794.09
2022-11-14T19:11:34.873Z,98797.44
2022-11-14T19:14:03.089Z,98794.44
2022-11-14T19:16:31.748Z,98793.06
2022-11-14T19:18:59.216Z,98796.41
2022-11-14T19:21:26.092Z,98799.16
2022-11-14T19:23:54.666Z,98799.16
2022-11-14T19:26:22.366Z,98784.91
2022-11-14T19:28:49.386Z,98779.44
2022-11-14T19:31:16.639Z,98789.00
2022-11-14T19:33:43.605Z,98786.03
2022-11-14T19:36:18.695Z,98791.22
2022-11-14T19:38:47.915Z,98784.66
2022-11-14T19:41:22.805Z,98787.69
2022-11-14T19:43:49.531Z,98779.47
2022-11-14T19:46:20.150Z,98772.56
2022-11-14T19:48:46.745Z,98775.63
2022-11-14T19:51:17.055Z,98773.44
2022-11-14T19:53:47.828Z,98771.28
2022-11-14T19:56:17.676Z,98761.97
2022-11-14T19:58:46.261Z,98764.97
2022-11-14T20:01:21.156Z,98758.16
2022-11-14T20:03:56.058Z,98752.13
2022-11-14T20:06:26.457Z,98748.03
2022-11-14T20:08:54.917Z,98751.03
2022-11-14T20:11:23.109Z,98741.72
2022-11-14T20:13:50.171Z,98741.75
2022-11-14T20:16:23.964Z,98742.34
2022-11-14T20:18:57.516Z,98733.03
2022-11-14T20:21:29.951Z,98741.81
2022-11-14T20:23:56.840Z,98731.97
2022-11-14T20:26:24.110Z,98730.84
2022-11-14T20:28:53.893Z,98723.72
2022-11-14T20:31:27.369Z,98727.06
2022-11-14T20:33:54.925Z,98720.44
2022-11-14T20:36:25.014Z,98719.63
2022-11-14T20:38:52.861Z,98713.34
2022-11-14T20:41:20.568Z,98717.19
2022-11-14T20:43:47.727Z,98718.28
2022-11-14T20:46:17.896Z,98707.84
2022-11-14T20:48:47.277Z,98706.22
2022-11-14T20:51:25.074Z,98707.31
2022-11-14T20:53:53.749Z,98702.94
2022-11-14T20:56:21.862Z,98707.63
2022-11-14T20:58:51.966Z,98702.41
2022-11-14T21:01:19.641Z,98707.34
2022-11-14T21:03:47.243Z,98705.72
2022-11-14T21:06:16.367Z,98702.97
2022-11-14T21:08:43.697Z,98701.84
2022-11-14T21:11:18.085Z,98707.38
2022-11-14T21:13:57.134Z,98700.81
2022-11-14T21:16:32.536Z,98695.06
2022-11-14T21:19:00.367Z,98699.19
2022-11-14T21:21:30.555Z,98693.75
2022-11-14T21:23:57.658Z,98697.84
2022-11-14T21:26:32.063Z,98695.91
2022-11-14T21:29:07.567Z,98693.22
2022-11-14T21:31:42.217Z,98696.78
2022-11-14T21:34:14.111Z,98695.97
2022-11-14T21:36:46.007Z,98697.31
2022-11-14T21:39:14.961Z,98698.16
2022-11-14T21:41:42.814Z,98685.00
2022-11-14T21:44:13.102Z,98690.47
2022-11-14T21:46:40.908Z,98683.63
2022-11-14T21:49:07.558Z,98688.25
2022-11-14T21:51:34.222Z,98687.72
2022-11-14T21:54:03.905Z,98682.50
2022-11-14T21:56:33.034Z,98674.88
2022-11-14T21:59:13.547Z,98680.31
2022-11-14T22:02:03.276Z,98667.69
2022-11-14T22:04:31.378Z,98677.81
2022-11-14T22:06:59.697Z,98669.56
2022-11-14T22:09:28.347Z,98666.28
2022-11-14T22:11:56.123Z,98667.91
2022-11-14T22:14:23.133Z,98655.06
2022-11-14T22:16:49.840Z,98656.97
2022-11-14T22:19:16.653Z,98656.41
2022-11-14T22:21:43.395Z,98656.38
2022-11-14T22:24:10.017Z,98653.09
2022-11-14T22:26:40.063Z,98650.38
2022-11-14T22:29:08.821Z,98641.91
2022-11-14T22:31:36.800Z,98646.53
2022-11-14T22:34:04.263Z,98639.91
2022-11-14T22:36:30.962Z,98636.66
2022-11-14T22:38:57.718Z,98632.53
2022-11-14T22:41:32.647Z,98627.06
2022-11-14T22:44:01.006Z,98629.50
2022-11-14T22:46:28.514Z,98631.69
2022-11-14T22:48:55.845Z,98631.69
2022-11-14T22:51:24.880Z,98624.31
2022-11-14T22:53:53.924Z,98621.56
2022-11-14T22:56:23.273Z,98618.25
2022-11-14T22:58:50.170Z,98613.66
2022-11-14T23:01:28.046Z,98614.72
2022-11-14T23:03:56.654Z,98613.09
2022-11-14T23:06:24.446Z,98615.28
2022-11-14T23:08:51.688Z,98617.47
2022-11-14T23:11:23.938Z,98603.25
2022-11-14T23:13:52.894Z,98609.78
2022-11-14T23:16:22.806Z,98593.09
2022-11-14T23:18:50.586Z,98589.50
2022-11-14T23:21:20.816Z,98587.00
2022-11-14T23:23:52.991Z,98587.84
2022-11-14T23:26:20.145Z,98582.66
2022-11-14T23:28:46.828Z,98582.09
2022-11-14T23:31:19.082Z,98576.91
2022-11-14T23:33:47.449Z,98565.41
2022-11-14T23:36:14.674Z,98557.75
2022-11-14T23:38:41.945Z,98555.00
2022-11-14T23:41:16.924Z,98555.50
2022-11-14T23:43:44.707Z,98550.03
2022-11-14T23:46:11.826Z,98547.84
2022-11-14T23:48:38.424Z,98547.31
2022-11-14T23:51:05.118Z,98547.84
2022-11-14T23:53:32.140Z,98539.13
2022-11-14T23:56:01.033Z,98536.94
2022-11-14T23:58:28.841Z,98538.59
